Time;durP1;ratioP1;P1;durP2;ratioP2;P2;SDS_P1;SDS_P2;PMS_P1;PMS_P2;Temp;Humidity;BMP_temperature;BMP_pressure;BME280_temperature;BME280_humidity;BME280_pressure;Samples;Min_cycle;Max_cycle;Signal;HPM_P1;HPM_P2
2023/07/22 00:00:45;;;;;;;3.70;3.40;;;;;24.90;100335.00;;;;2041471;28;20231;-57
2023/07/22 00:01:45;;;;;;;4.17;3.77;;;;;24.60;100338.00;;;;2048320;28;20333;-56
2023/07/22 00:02:46;;;;;;;3.87;3.57;;;;;24.90;100338.00;;;;2052106;28;20461;-55
2023/07/22 00:03:46;;;;;;;4.40;4.00;;;;;24.90;100337.00;;;;2047452;28;20228;-54
2023/07/22 00:04:47;;;;;;;4.27;3.90;;;;;24.90;100341.00;;;;2052689;28;20794;-56
2023/07/22 00:05:47;;;;;;;4.10;3.70;;;;;24.90;100334.00;;;;2041978;28;20249;-53
2023/07/22 00:06:47;;;;;;;4.10;3.80;;;;;24.90;100338.00;;;;2053918;28;20215;-54
2023/07/22 00:07:48;;;;;;;3.80;3.50;;;;;24.90;100341.00;;;;2052407;28;20219;-55
2023/07/22 00:08:49;;;;;;;3.50;3.20;;;;;24.90;100342.00;;;;2051505;28;20215;-54
2023/07/22 00:09:50;;;;;;;4.38;3.97;;;;;24.90;100342.00;;;;2053524;28;20927;-53
2023/07/22 00:10:50;;;;;;;3.87;3.57;;;;;24.90;100342.00;;;;2043266;28;20224;-56
2023/07/22 00:11:51;;;;;;;4.03;3.73;;;;;24.90;100336.00;;;;2052987;28;20229;-56
2023/07/22 00:12:51;;;;;;;3.73;3.33;;;;;24.90;100335.00;;;;2050981;28;20211;-57
2023/07/22 00:13:51;;;;;;;3.63;3.33;;;;;24.90;100337.00;;;;2052307;28;20266;-56
2023/07/22 00:14:53;;;;;;;3.70;3.40;;;;;24.90;100333.00;;;;2048582;28;20247;-56
2023/07/22 00:15:54;;;;;;;3.97;3.67;;;;;24.90;100333.00;;;;2041517;28;20232;-56
2023/07/22 00:16:54;;;;;;;3.80;3.47;;;;;24.90;100330.00;;;;2051827;28;20641;-56
2023/07/22 00:17:55;;;;;;;3.47;3.17;;;;;24.90;100331.00;;;;2051101;28;20203;-56
2023/07/22 00:18:56;;;;;;;3.80;3.50;;;;;24.90;100323.00;;;;2050901;28;20208;-55
2023/07/22 00:19:56;;;;;;;4.03;3.73;;;;;24.90;100330.00;;;;2046497;28;20207;-56
2023/07/22 00:20:56;;;;;;;3.63;3.33;;;;;24.90;100322.00;;;;2042792;28;20227;-56
2023/07/22 00:21:57;;;;;;;3.90;3.60;;;;;24.90;100316.00;;;;2051846;28;20215;-55
2023/07/22 00:22:57;;;;;;;3.77;3.47;;;;;24.90;100321.00;;;;2048873;28;20207;-56
2023/07/22 00:23:59;;;;;;;4.57;3.63;;;;;24.90;100321.00;;;;2049060;28;21055;-58
2023/07/22 00:25:02;;;;;;;3.70;3.40;;;;;24.90;100320.00;;;;2049400;28;20230;-56
2023/07/22 00:26:02;;;;;;;3.33;3.03;;;;;24.90;100321.00;;;;2039781;28;20216;-54
2023/07/22 00:27:03;;;;;;;3.63;3.27;;;;;24.90;100320.00;;;;2051355;28;20226;-54
2023/07/22 00:28:06;;;;;;;3.90;3.60;;;;;24.90;100323.00;;;;2053360;28;20239;-56
2023/07/22 00:29:07;;;;;;;3.63;3.33;;;;;24.90;100256.00;;;;2051642;28;20227;-53
2023/07/22 00:30:08;;;;;;;3.45;3.15;;;;;24.90;100321.00;;;;2049405;28;20295;-56
2023/07/22 00:31:09;;;;;;;3.80;3.50;;;;;24.90;100320.00;;;;2039918;28;20711;-54
2023/07/22 00:32:09;;;;;;;4.27;3.87;;;;;24.90;100313.00;;;;2048531;28;20297;-55
2023/07/22 00:33:09;;;;;;;3.47;3.17;;;;;24.90;100317.00;;;;2051450;28;20235;-56
2023/07/22 00:34:10;;;;;;;3.90;3.40;;;;;24.90;100315.00;;;;2050522;28;20250;-56
2023/07/22 00:35:10;;;;;;;4.20;3.80;;;;;24.90;100322.00;;;;2051837;28;20223;-61
2023/07/22 00:36:11;;;;;;;3.63;3.33;;;;;24.90;100322.00;;;;2038898;28;20216;-56
2023/07/22 00:37:11;;;;;;;3.57;3.27;;;;;24.90;100320.00;;;;2048177;28;20904;-56
2023/07/22 00:38:11;;;;;;;4.53;3.77;;;;;24.90;100321.00;;;;2047956;28;20298;-56
2023/07/22 00:39:13;;;;;;;3.53;3.23;;;;;24.90;100323.00;;;;2051713;28;20694;-56
2023/07/22 00:40:14;;;;;;;4.43;4.03;;;;;24.90;100318.00;;;;2048701;28;20223;-56
2023/07/22 00:41:14;;;;;;;3.73;3.40;;;;;24.90;100323.00;;;;2035007;28;20307;-56
2023/07/22 00:42:15;;;;;;;3.70;3.40;;;;;24.90;100322.00;;;;2046487;28;20957;-56
2023/07/22 00:43:16;;;;;;;3.80;3.47;;;;;24.90;100315.00;;;;2048021;28;20768;-56
2023/07/22 00:44:16;;;;;;;4.17;3.67;;;;;24.90;100315.00;;;;2051685;28;20607;-56
2023/07/22 00:45:16;;;;;;;4.13;3.73;;;;;24.90;100321.00;;;;2045273;28;20459;-56
2023/07/22 00:46:17;;;;;;;4.60;3.97;;;;;24.90;100315.00;;;;2048989;28;20752;-56
2023/07/22 00:47:17;;;;;;;4.00;3.60;;;;;24.90;100312.00;;;;2050750;28;20226;-56
2023/07/22 00:48:17;;;;;;;3.80;3.50;;;;;24.40;100314.00;;;;2051364;28;20326;-56
2023/07/22 00:49:18;;;;;;;4.30;3.90;;;;;24.90;100314.00;;;;2048434;28;21475;-60
2023/07/22 00:50:18;;;;;;;3.73;3.43;;;;;24.90;100315.00;;;;2039565;28;20223;-59
2023/07/22 00:51:20;;;;;;;4.10;3.70;;;;;24.90;100312.00;;;;2050429;28;20658;-57
2023/07/22 00:52:21;;;;;;;3.45;3.15;;;;;24.90;100312.00;;;;2051950;28;20227;-55
2023/07/22 00:53:21;;;;;;;3.53;3.23;;;;;24.90;100312.00;;;;2060283;28;20233;-57
2023/07/22 00:54:21;;;;;;;4.37;3.97;;;;;24.90;100308.00;;;;2061916;28;20282;-57
2023/07/22 00:55:22;;;;;;;4.03;3.63;;;;;24.90;100309.00;;;;2042028;28;20223;-56
2023/07/22 00:56:22;;;;;;;4.00;3.70;;;;;24.90;100300.00;;;;2052536;28;20238;-57
2023/07/22 00:57:22;;;;;;;3.43;3.13;;;;;24.90;100305.00;;;;2047917;28;20259;-57
2023/07/22 00:58:23;;;;;;;4.67;4.27;;;;;24.90;100306.00;;;;2050965;28;20227;-57
2023/07/22 00:59:24;;;;;;;3.50;3.20;;;;;24.80;100297.00;;;;2053688;28;20235;-57
2023/07/22 01:00:24;;;;;;;3.85;3.55;;;;;24.80;100295.00;;;;2041342;28;20228;-57
2023/07/22 01:01:24;;;;;;;3.70;3.40;;;;;24.90;100299.00;;;;2049677;28;20219;-59
2023/07/22 01:02:25;;;;;;;3.83;3.43;;;;;24.80;100302.00;;;;2052490;28;20220;-60
2023/07/22 01:03:25;;;;;;;3.87;3.57;;;;;24.90;100303.00;;;;2051509;28;20211;-57
2023/07/22 01:04:25;;;;;;;3.53;3.23;;;;;24.90;100298.00;;;;2047784;28;20314;-60
2023/07/22 01:05:26;;;;;;;4.23;3.90;;;;;24.80;100299.00;;;;2041230;28;20282;-60
2023/07/22 01:06:29;;;;;;;4.30;3.90;;;;;24.90;100305.00;;;;2044639;28;20276;-61
2023/07/22 01:07:29;;;;;;;3.40;3.10;;;;;24.80;100298.00;;;;2051990;28;20630;-56
2023/07/22 01:08:29;;;;;;;3.83;3.53;;;;;24.90;100304.00;;;;2052480;28;20474;-57
2023/07/22 01:09:40;;;;;;;4.00;3.60;;;;;24.90;100297.00;;;;2047723;28;20252;-57
2023/07/22 01:10:40;;;;;;;3.43;3.13;;;;;24.80;100304.00;;;;2035049;28;20568;-57
2023/07/22 01:11:40;;;;;;;3.57;3.27;;;;;24.80;100305.00;;;;2052001;28;20570;-57
2023/07/22 01:12:41;;;;;;;3.50;3.20;;;;;24.80;100299.00;;;;2052341;28;20286;-57
2023/07/22 01:13:41;;;;;;;3.83;3.30;;;;;24.90;100295.00;;;;2053499;28;20223;-56
2023/07/22 01:14:41;;;;;;;4.47;4.07;;;;;24.90;100295.00;;;;2048482;28;20227;-57
2023/07/22 01:15:42;;;;;;;3.87;3.57;;;;;24.80;100293.00;;;;2036042;28;20216;-56
2023/07/22 01:16:42;;;;;;;3.67;3.37;;;;;24.80;100290.00;;;;2044339;28;20216;-58
2023/07/22 01:17:42;;;;;;;4.33;3.93;;;;;24.80;100294.00;;;;2047321;28;20303;-57
2023/07/22 01:18:43;;;;;;;3.60;3.30;;;;;24.80;100288.00;;;;2045945;28;20235;-58
2023/07/22 01:19:43;;;;;;;4.13;3.80;;;;;24.80;100345.00;;;;2044657;28;20224;-57
2023/07/22 01:20:43;;;;;;;3.87;3.50;;;;;24.80;100289.00;;;;2036494;28;20603;-54
2023/07/22 01:21:44;;;;;;;4.40;4.00;;;;;24.80;100291.00;;;;2041862;28;20623;-56
2023/07/22 01:22:53;;;;;;;3.30;3.00;;;;;24.80;100306.00;;;;2045425;28;20275;-57
2023/07/22 01:23:54;;;;;;;3.50;3.20;;;;;24.80;100287.00;;;;2043996;28;20224;-54
2023/07/22 01:24:54;;;;;;;3.93;3.60;;;;;24.80;100291.00;;;;2043844;28;20451;-57
2023/07/22 01:25:54;;;;;;;3.80;3.50;;;;;24.80;100287.00;;;;2036313;28;20215;-57
2023/07/22 01:26:55;;;;;;;4.10;3.80;;;;;24.80;100283.00;;;;2052089;28;20353;-57
2023/07/22 01:27:55;;;;;;;3.73;3.37;;;;;24.80;100279.00;;;;2052679;28;20253;-59
2023/07/22 01:29:05;;;;;;;3.70;3.40;;;;;24.80;100283.00;;;;2050192;28;20228;-57
2023/07/22 01:30:09;;;;;;;4.28;3.88;;;;;24.80;100283.00;;;;2044608;28;20216;-57
2023/07/22 01:31:09;;;;;;;3.50;3.20;;;;;24.80;100279.00;;;;2041704;28;20629;-58
2023/07/22 01:32:10;;;;;;;4.13;3.73;;;;;24.80;100281.00;;;;2054069;28;20243;-54
2023/07/22 01:33:10;;;;;;;3.90;3.60;;;;;24.80;100281.00;;;;2052416;28;20224;-54
2023/07/22 01:34:12;;;;;;;3.77;3.47;;;;;24.80;100283.00;;;;2054035;28;20363;-53
2023/07/22 01:35:12;;;;;;;3.97;3.65;;;;;24.80;100290.00;;;;2051351;28;20302;-58
2023/07/22 01:36:12;;;;;;;3.93;3.63;;;;;24.80;100291.00;;;;2042257;28;20223;-56
2023/07/22 01:37:13;;;;;;;4.30;3.90;;;;;24.80;100288.00;;;;2053085;28;20223;-57
2023/07/22 01:38:13;;;;;;;3.90;3.60;;;;;24.80;100291.00;;;;2052461;28;20580;-57
2023/07/22 01:39:14;;;;;;;4.10;3.77;;;;;24.80;100291.00;;;;2053240;28;20220;-57
2023/07/22 01:40:15;;;;;;;3.77;3.43;;;;;24.80;100287.00;;;;2045509;28;20233;-57
2023/07/22 01:41:15;;;;;;;4.10;3.70;;;;;24.80;100292.00;;;;2042283;28;20470;-57
2023/07/22 01:42:15;;;;;;;3.83;3.53;;;;;24.80;100292.00;;;;2049121;28;20323;-57
2023/07/22 01:43:16;;;;;;;4.40;3.80;;;;;24.80;100291.00;;;;2053099;28;20219;-55
2023/07/22 01:44:16;;;;;;;4.03;3.63;;;;;24.80;100284.00;;;;2050264;28;20244;-54
2023/07/22 01:45:16;;;;;;;4.07;3.67;;;;;24.80;100296.00;;;;2045154;28;20306;-56
2023/07/22 01:46:16;;;;;;;3.80;3.47;;;;;24.80;100288.00;;;;2049675;28;20220;-53
2023/07/22 01:47:17;;;;;;;3.70;3.40;;;;;24.80;100289.00;;;;2050834;28;20220;-57
2023/07/22 01:48:17;;;;;;;3.97;3.57;;;;;24.80;100288.00;;;;2048151;28;20226;-57
2023/07/22 01:49:17;;;;;;;3.97;3.67;;;;;24.80;100285.00;;;;2049314;28;20220;-57
2023/07/22 01:50:18;;;;;;;4.17;3.77;;;;;24.80;100287.00;;;;2042292;28;20270;-59
2023/07/22 01:51:18;;;;;;;3.40;3.10;;;;;24.80;100281.00;;;;2051413;28;20965;-58
2023/07/22 01:52:19;;;;;;;4.60;4.20;;;;;24.80;100297.00;;;;2053387;28;21102;-57
2023/07/22 01:53:20;;;;;;;4.03;3.63;;;;;24.80;100284.00;;;;2053965;28;20687;-54
2023/07/22 01:54:20;;;;;;;3.97;3.63;;;;;24.80;100285.00;;;;2059644;28;20211;-57
2023/07/22 01:55:21;;;;;;;3.60;3.30;;;;;24.80;100280.00;;;;2049485;28;20237;-57
2023/07/22 01:56:21;;;;;;;3.67;3.37;;;;;24.80;100279.00;;;;2052547;28;20227;-57
2023/07/22 01:57:21;;;;;;;4.30;3.90;;;;;24.80;100297.00;;;;2052831;28;20775;-56
2023/07/22 01:58:22;;;;;;;3.80;3.50;;;;;24.80;100276.00;;;;2053173;28;20951;-57
2023/07/22 01:59:22;;;;;;;4.10;3.70;;;;;24.80;100278.00;;;;2050122;28;20596;-57
2023/07/22 02:00:22;;;;;;;3.57;3.27;;;;;24.80;100277.00;;;;2043295;28;20231;-57
2023/07/22 02:01:23;;;;;;;3.30;3.00;;;;;24.80;100278.00;;;;2053661;28;20306;-58
2023/07/22 02:02:23;;;;;;;4.10;3.80;;;;;24.80;100279.00;;;;2054009;28;20234;-58
2023/07/22 02:03:23;;;;;;;3.67;3.37;;;;;24.80;100279.00;;;;2050312;28;20246;-57
2023/07/22 02:04:24;;;;;;;4.27;3.87;;;;;24.80;100280.00;;;;2049836;28;20278;-56
2023/07/22 02:05:25;;;;;;;4.07;3.73;;;;;24.80;100284.00;;;;2040738;28;20579;-57
2023/07/22 02:06:26;;;;;;;3.70;3.40;;;;;24.80;100288.00;;;;2052792;28;20494;-61
2023/07/22 02:07:27;;;;;;;4.13;3.73;;;;;24.80;100279.00;;;;2052610;28;20730;-57
2023/07/22 02:08:27;;;;;;;4.10;3.47;;;;;24.80;100285.00;;;;2049479;28;20510;-57
2023/07/22 02:09:27;;;;;;;4.33;3.93;;;;;24.80;100285.00;;;;2053700;28;20858;-57
2023/07/22 02:10:28;;;;;;;3.43;3.13;;;;;24.80;100286.00;;;;2043193;28;20651;-56
2023/07/22 02:11:28;;;;;;;3.83;3.53;;;;;24.80;100286.00;;;;2048842;28;20584;-54
2023/07/22 02:12:28;;;;;;;4.10;3.80;;;;;24.80;100280.00;;;;2048974;28;20732;-56
2023/07/22 02:13:29;;;;;;;3.60;3.30;;;;;24.80;100288.00;;;;2051261;28;20247;-57
2023/07/22 02:14:29;;;;;;;3.80;3.50;;;;;24.80;100286.00;;;;2050524;28;20239;-57
2023/07/22 02:15:31;;;;;;;3.43;3.13;;;;;24.80;100285.00;;;;2041215;28;20228;-58
2023/07/22 02:16:34;;;;;;;3.73;3.40;;;;;24.80;100289.00;;;;2059118;28;20717;-56
2023/07/22 02:17:35;;;;;;;4.10;3.40;;;;;24.80;100287.00;;;;2058927;28;20473;-55
2023/07/22 02:18:35;;;;;;;4.33;4.00;;;;;24.80;100278.00;;;;2047361;28;20311;-57
2023/07/22 02:19:36;;;;;;;3.90;3.60;;;;;24.80;100285.00;;;;2050760;28;20309;-55
2023/07/22 02:20:37;;;;;;;4.00;3.60;;;;;24.80;100275.00;;;;2043841;28;20338;-54
2023/07/22 02:21:37;;;;;;;4.27;3.87;;;;;24.80;100281.00;;;;2051194;28;20821;-56
2023/07/22 02:22:37;;;;;;;3.70;3.40;;;;;24.80;100279.00;;;;2051307;28;20696;-58
2023/07/22 02:23:38;;;;;;;4.27;3.87;;;;;24.80;100275.00;;;;2052980;28;20784;-55
2023/07/22 02:24:38;;;;;;;3.87;3.57;;;;;24.80;100273.00;;;;2052229;28;20227;-57
2023/07/22 02:25:38;;;;;;;3.70;3.40;;;;;24.80;100276.00;;;;2043786;28;20258;-59
2023/07/22 02:26:39;;;;;;;3.90;3.60;;;;;24.80;100274.00;;;;2053469;28;20232;-57
2023/07/22 02:27:40;;;;;;;3.70;3.40;;;;;24.80;100280.00;;;;2053291;28;20227;-60
2023/07/22 02:28:40;;;;;;;3.90;3.60;;;;;24.80;100278.00;;;;2052050;28;20231;-55
2023/07/22 02:29:41;;;;;;;3.90;3.60;;;;;24.80;100279.00;;;;2052629;28;20510;-56
2023/07/22 02:30:41;;;;;;;3.40;3.10;;;;;24.80;100279.00;;;;2038010;28;20228;-55
2023/07/22 02:31:41;;;;;;;3.67;3.37;;;;;24.80;100271.00;;;;2046235;28;20235;-53
2023/07/22 02:32:42;;;;;;;3.63;3.33;;;;;24.80;100280.00;;;;2048983;28;20767;-54
2023/07/22 02:33:42;;;;;;;3.63;3.33;;;;;24.80;100275.00;;;;2051291;28;20699;-57
2023/07/22 02:34:42;;;;;;;3.90;3.60;;;;;24.80;100267.00;;;;2053272;28;20722;-57
2023/07/22 02:35:43;;;;;;;3.20;3.00;;;;;24.80;100273.00;;;;2041425;28;20219;-57
2023/07/22 02:36:43;;;;;;;3.90;3.60;;;;;24.80;100273.00;;;;2053546;28;20266;-56
2023/07/22 02:37:43;;;;;;;3.50;3.20;;;;;24.80;100275.00;;;;2053888;28;20275;-61
2023/07/22 02:38:44;;;;;;;3.47;3.17;;;;;24.80;100279.00;;;;2050842;28;20215;-56
2023/07/22 02:39:44;;;;;;;3.70;3.40;;;;;24.80;100281.00;;;;2052750;28;20230;-56
2023/07/22 02:40:46;;;;;;;3.43;3.17;;;;;24.80;100273.00;;;;2043083;28;20219;-56
2023/07/22 02:41:47;;;;;;;3.83;3.53;;;;;24.80;100280.00;;;;2052885;28;20282;-56
2023/07/22 02:42:47;;;;;;;3.83;3.53;;;;;24.80;100285.00;;;;2050657;28;20223;-56
2023/07/22 02:43:47;;;;;;;3.60;3.30;;;;;24.80;100276.00;;;;2053004;28;21002;-57
2023/07/22 02:44:48;;;;;;;4.30;3.90;;;;;24.80;100314.00;;;;2045920;28;20258;-56
2023/07/22 02:45:48;;;;;;;4.00;3.60;;;;;24.80;100272.00;;;;2040841;28;20766;-57
2023/07/22 02:46:48;;;;;;;3.83;3.50;;;;;24.80;100276.00;;;;2053071;28;20258;-56
2023/07/22 02:47:49;;;;;;;3.87;3.57;;;;;24.80;100276.00;;;;2050236;28;20287;-57
2023/07/22 02:48:49;;;;;;;4.30;3.93;;;;;24.80;100279.00;;;;2053019;28;20231;-57
2023/07/22 02:49:50;;;;;;;3.80;3.50;;;;;24.80;100281.00;;;;2050742;28;20219;-57
2023/07/22 02:50:50;;;;;;;4.40;3.63;;;;;24.80;100277.00;;;;2040969;28;20227;-55
2023/07/22 02:51:50;;;;;;;4.10;3.70;;;;;24.80;100277.00;;;;2050484;28;20231;-60
2023/07/22 02:52:51;;;;;;;4.00;3.60;;;;;24.80;100270.00;;;;2048086;28;20556;-57
2023/07/22 02:53:51;;;;;;;3.40;3.10;;;;;24.80;100272.00;;;;2052897;28;20211;-57
2023/07/22 02:55:11;;;;;;;3.60;3.30;;;;;24.80;100275.00;;;;2049317;28;20278;-57
2023/07/22 02:56:11;;;;;;;3.85;3.50;;;;;24.80;100280.00;;;;2041382;28;20223;-56
2023/07/22 02:57:11;;;;;;;3.70;3.40;;;;;24.80;100279.00;;;;2052396;28;20212;-58
2023/07/22 02:58:12;;;;;;;3.93;3.63;;;;;24.80;100278.00;;;;2052206;28;20265;-57
2023/07/22 02:59:12;;;;;;;4.13;3.73;;;;;24.80;100285.00;;;;2046657;28;20220;-57
2023/07/22 03:00:15;;;;;;;4.10;3.70;;;;;24.80;100280.00;;;;2052991;28;20579;-56
2023/07/22 03:01:15;;;;;;;3.37;3.10;;;;;24.80;100287.00;;;;2043385;28;20575;-57
2023/07/22 03:02:15;;;;;;;4.30;4.00;;;;;24.80;100290.00;;;;2048601;28;20467;-57
2023/07/22 03:03:16;;;;;;;3.93;3.60;;;;;24.80;100298.00;;;;2049471;28;20290;-57
2023/07/22 03:04:16;;;;;;;4.10;3.80;;;;;24.80;100288.00;;;;2052190;28;21122;-56
2023/07/22 03:05:16;;;;;;;3.43;3.13;;;;;24.80;100284.00;;;;2050372;28;20640;-60
2023/07/22 03:06:17;;;;;;;3.60;3.20;;;;;24.80;100284.00;;;;2043589;28;20635;-58
2023/07/22 03:07:17;;;;;;;3.90;3.60;;;;;24.80;100284.00;;;;2051302;28;20314;-60
2023/07/22 03:08:18;;;;;;;3.93;3.53;;;;;24.80;100287.00;;;;2052387;28;20230;-60
2023/07/22 03:09:21;;;;;;;3.45;3.15;;;;;24.80;100282.00;;;;2048830;28;20208;-56
2023/07/22 03:10:21;;;;;;;3.90;3.60;;;;;24.80;100281.00;;;;2037731;28;20227;-59
2023/07/22 03:11:24;;;;;;;3.97;3.63;;;;;24.80;100287.00;;;;2048293;28;22194;-56
2023/07/22 03:12:25;;;;;;;3.58;3.28;;;;;24.80;100283.00;;;;2052623;28;20222;-57
2023/07/22 03:13:29;;;;;;;3.63;3.33;;;;;24.80;100286.00;;;;2051642;28;20227;-56
2023/07/22 03:14:37;;;;;;;4.05;3.65;;;;;24.80;100295.00;;;;2052302;28;20618;-61
2023/07/22 03:15:37;;;;;;;4.05;3.40;;;;;24.80;100288.00;;;;2041998;28;20287;-57
2023/07/22 03:16:37;;;;;;;3.70;3.40;;;;;24.80;100284.00;;;;2051490;28;20298;-58
2023/07/22 03:17:38;;;;;;;3.50;3.20;;;;;24.80;100289.00;;;;2052655;28;20226;-57
2023/07/22 03:18:39;;;;;;;3.47;3.17;;;;;24.80;100294.00;;;;2051632;28;20219;-56
2023/07/22 03:19:40;;;;;;;3.90;3.50;;;;;24.80;100290.00;;;;2052306;28;20522;-57
2023/07/22 03:20:41;;;;;;;3.93;3.63;;;;;24.70;100283.00;;;;2038545;28;20483;-57
2023/07/22 03:21:41;;;;;;;3.70;3.40;;;;;24.80;100280.00;;;;2052477;28;20219;-57
2023/07/22 03:22:42;;;;;;;3.30;3.00;;;;;24.80;100286.00;;;;2051577;28;20204;-57
2023/07/22 03:23:42;;;;;;;3.73;3.37;;;;;24.70;100285.00;;;;2050785;28;20684;-57
2023/07/22 03:24:43;;;;;;;3.40;3.10;;;;;24.80;100286.00;;;;2044969;28;20216;-57
2023/07/22 03:25:43;;;;;;;3.53;3.22;;;;;24.70;100289.00;;;;2038399;28;20231;-58
2023/07/22 03:26:44;;;;;;;3.57;3.27;;;;;24.80;100289.00;;;;2047085;28;20216;-56
2023/07/22 03:27:44;;;;;;;3.33;3.03;;;;;24.70;100292.00;;;;2049906;28;20211;-59
2023/07/22 03:28:44;;;;;;;3.30;3.00;;;;;24.80;100288.00;;;;2037769;28;20232;-57
2023/07/22 03:29:45;;;;;;;3.47;3.17;;;;;24.70;100284.00;;;;2044847;28;20307;-57
2023/07/22 03:30:45;;;;;;;4.07;3.60;;;;;24.80;100291.00;;;;2039526;28;20237;-58
2023/07/22 03:31:45;;;;;;;3.37;3.07;;;;;24.80;100288.00;;;;2052500;28;20276;-57
2023/07/22 03:32:47;;;;;;;3.40;3.10;;;;;24.70;100286.00;;;;2055285;28;20302;-56
2023/07/22 03:33:48;;;;;;;4.10;3.70;;;;;24.70;100294.00;;;;2049426;28;20220;-57
2023/07/22 03:34:48;;;;;;;3.43;3.13;;;;;24.80;100292.00;;;;2047266;28;20483;-56
2023/07/22 03:35:48;;;;;;;3.93;3.63;;;;;24.70;100308.00;;;;2046066;28;20305;-57
2023/07/22 03:36:49;;;;;;;3.67;3.37;;;;;24.70;100295.00;;;;2058243;28;20226;-54
2023/07/22 03:37:49;;;;;;;3.77;3.43;;;;;24.70;100292.00;;;;2054151;28;20224;-55
2023/07/22 03:38:49;;;;;;;3.90;3.60;;;;;24.70;100290.00;;;;2052362;28;20212;-53
2023/07/22 03:39:50;;;;;;;4.13;3.70;;;;;24.70;100291.00;;;;2050898;28;20243;-57
2023/07/22 03:40:52;;;;;;;3.80;3.50;;;;;24.80;100285.00;;;;2036512;28;20224;-57
2023/07/22 03:41:53;;;;;;;3.90;3.50;;;;;24.70;100302.00;;;;2048135;28;20479;-56
2023/07/22 03:42:54;;;;;;;3.57;3.27;;;;;24.80;100291.00;;;;2052439;28;20467;-53
2023/07/22 03:43:54;;;;;;;3.97;3.67;;;;;24.70;100303.00;;;;2051876;28;20224;-57
2023/07/22 03:44:55;;;;;;;3.73;3.43;;;;;24.70;100296.00;;;;2050331;28;20231;-57
2023/07/22 03:45:55;;;;;;;3.60;3.30;;;;;24.70;100294.00;;;;2040703;28;20321;-57
2023/07/22 03:46:55;;;;;;;4.20;3.70;;;;;24.70;100295.00;;;;2051667;28;20219;-53
2023/07/22 03:47:57;;;;;;;3.87;3.57;;;;;24.70;100292.00;;;;2051109;28;20317;-57
2023/07/22 03:48:57;;;;;;;4.00;3.60;;;;;24.70;100306.00;;;;2050830;28;20223;-57
2023/07/22 03:49:57;;;;;;;4.17;3.77;;;;;24.80;100295.00;;;;2052528;28;21132;-57
2023/07/22 03:50:58;;;;;;;3.50;3.20;;;;;24.80;100295.00;;;;2042035;28;20920;-57
2023/07/22 03:51:58;;;;;;;3.83;3.53;;;;;24.70;100296.00;;;;2051357;28;20223;-57
2023/07/22 03:52:58;;;;;;;3.90;3.60;;;;;24.70;100293.00;;;;2052265;28;20319;-57
2023/07/22 03:53:59;;;;;;;3.60;3.10;;;;;24.70;100295.00;;;;2046613;28;20354;-57
2023/07/22 03:54:59;;;;;;;3.57;3.27;;;;;24.70;100295.00;;;;2051406;28;20302;-57
2023/07/22 03:56:00;;;;;;;3.53;3.23;;;;;24.70;100287.00;;;;2041216;28;20310;-57
2023/07/22 03:57:00;;;;;;;3.67;3.37;;;;;24.70;100292.00;;;;2052287;28;20230;-57
2023/07/22 03:58:00;;;;;;;4.20;3.80;;;;;24.70;100292.00;;;;2052565;28;20219;-56
2023/07/22 03:59:01;;;;;;;3.83;3.53;;;;;24.70;100288.00;;;;2051172;28;20250;-57
2023/07/22 04:00:03;;;;;;;4.10;3.70;;;;;24.70;100296.00;;;;2052310;28;20223;-56
2023/07/22 04:01:03;;;;;;;4.03;3.63;;;;;24.70;100291.00;;;;2039297;28;21003;-57
2023/07/22 04:02:05;;;;;;;4.27;3.87;;;;;24.70;100292.00;;;;2042096;28;20231;-57
2023/07/22 04:03:05;;;;;;;3.30;3.00;;;;;24.70;100291.00;;;;2047726;28;20216;-57
2023/07/22 04:04:05;;;;;;;3.50;3.20;;;;;24.70;100295.00;;;;2051565;28;20223;-56
2023/07/22 04:05:06;;;;;;;3.53;3.23;;;;;24.70;100288.00;;;;2049432;28;20250;-56
2023/07/22 04:06:07;;;;;;;3.83;3.50;;;;;24.70;100293.00;;;;2048486;28;20225;-56
2023/07/22 04:07:08;;;;;;;3.60;3.30;;;;;24.70;100289.00;;;;2058713;28;20214;-57
2023/07/22 04:08:08;;;;;;;3.87;3.57;;;;;24.70;100301.00;;;;2052473;28;20702;-57
2023/07/22 04:09:08;;;;;;;3.77;3.47;;;;;24.70;100295.00;;;;2051091;28;20451;-57
2023/07/22 04:10:09;;;;;;;4.10;3.70;;;;;24.70;100301.00;;;;2046437;28;20224;-58
2023/07/22 04:11:09;;;;;;;3.30;3.00;;;;;24.70;100299.00;;;;2042518;28;20223;-57
2023/07/22 04:12:09;;;;;;;4.20;3.87;;;;;24.70;100296.00;;;;2050814;28;20208;-56
2023/07/22 04:13:10;;;;;;;3.50;3.20;;;;;24.70;100301.00;;;;2050515;28;20208;-57
2023/07/22 04:14:12;;;;;;;3.90;3.60;;;;;24.70;100302.00;;;;2051040;28;20295;-56
2023/07/22 04:15:12;;;;;;;3.35;3.05;;;;;24.70;100362.00;;;;2043827;28;20572;-53
2023/07/22 04:16:12;;;;;;;3.50;3.20;;;;;24.70;100301.00;;;;2041556;28;20247;-57
2023/07/22 04:17:15;;;;;;;3.70;3.40;;;;;24.70;100298.00;;;;2050498;28;20269;-53
2023/07/22 04:18:16;;;;;;;3.75;3.45;;;;;24.70;100296.00;;;;2045207;28;20220;-57
2023/07/22 04:19:16;;;;;;;3.90;3.55;;;;;24.70;100300.00;;;;2049492;28;20227;-57
2023/07/22 04:20:17;;;;;;;3.80;3.50;;;;;24.70;100296.00;;;;2049043;28;20309;-59
2023/07/22 04:21:18;;;;;;;3.43;3.13;;;;;24.70;100299.00;;;;2046302;28;20237;-57
2023/07/22 04:22:20;;;;;;;3.70;3.40;;;;;24.70;100304.00;;;;2050736;28;20454;-57
2023/07/22 04:23:20;;;;;;;3.80;3.40;;;;;24.70;100301.00;;;;2045415;28;21055;-58
2023/07/22 04:24:21;;;;;;;3.30;3.00;;;;;24.70;100302.00;;;;2050855;28;20282;-58
2023/07/22 04:25:21;;;;;;;3.50;3.20;;;;;24.70;100303.00;;;;2036690;28;20247;-57
2023/07/22 04:26:21;;;;;;;4.00;3.70;;;;;24.70;100300.00;;;;2052949;28;20227;-60
2023/07/22 04:27:22;;;;;;;4.20;3.80;;;;;24.70;100301.00;;;;2053833;28;20216;-56
2023/07/22 04:28:22;;;;;;;3.70;3.40;;;;;24.70;100299.00;;;;2052926;28;20212;-57
2023/07/22 04:29:22;;;;;;;3.90;3.43;;;;;24.70;100301.00;;;;2053956;28;20298;-56
2023/07/22 04:30:24;;;;;;;3.77;3.47;;;;;24.70;100299.00;;;;2043432;28;20302;-56
2023/07/22 04:31:24;;;;;;;3.20;2.90;;;;;24.70;100301.00;;;;2052354;28;20250;-56
2023/07/22 04:32:25;;;;;;;3.10;2.90;;;;;24.70;100298.00;;;;2047972;28;20242;-58
2023/07/22 04:33:25;;;;;;;3.70;3.40;;;;;24.70;100297.00;;;;2052884;28;20258;-57
2023/07/22 04:34:32;;;;;;;3.57;3.27;;;;;24.70;100298.00;;;;2053730;28;20626;-57
2023/07/22 04:35:32;;;;;;;3.67;3.38;;;;;24.70;100297.00;;;;2040288;28;20303;-57
2023/07/22 04:36:33;;;;;;;4.13;3.80;;;;;24.70;100299.00;;;;2054728;28;20262;-57
2023/07/22 04:37:34;;;;;;;3.70;3.40;;;;;24.70;100288.00;;;;2055789;28;20223;-58
2023/07/22 04:38:34;;;;;;;3.27;3.00;;;;;24.70;100302.00;;;;2054274;28;20219;-58
2023/07/22 04:39:34;;;;;;;3.50;3.20;;;;;24.70;100296.00;;;;2045753;28;20224;-55
2023/07/22 04:40:34;;;;;;;3.97;3.67;;;;;24.70;100304.00;;;;2043222;28;20231;-56
2023/07/22 04:41:35;;;;;;;4.10;3.70;;;;;24.70;100299.00;;;;2054236;28;20270;-58
2023/07/22 04:42:35;;;;;;;3.90;3.60;;;;;24.70;100302.00;;;;2052604;28;20310;-57
2023/07/22 04:43:35;;;;;;;3.37;3.10;;;;;24.70;100301.00;;;;2052697;28;20215;-58
2023/07/22 04:44:36;;;;;;;3.70;3.40;;;;;24.70;100304.00;;;;2053632;28;20220;-56
2023/07/22 04:45:40;;;;;;;3.23;2.93;;;;;24.70;100345.00;;;;2043224;28;20228;-55
2023/07/22 04:46:40;;;;;;;3.20;2.90;;;;;24.70;100311.00;;;;2050393;28;20750;-62
2023/07/22 04:47:41;;;;;;;4.37;3.70;;;;;24.70;100300.00;;;;2053489;28;20219;-61
2023/07/22 04:48:42;;;;;;;3.70;3.40;;;;;24.70;100302.00;;;;2049230;28;20310;-60
2023/07/22 04:49:42;;;;;;;3.57;3.27;;;;;24.70;100306.00;;;;2050672;28;20279;-59
2023/07/22 04:50:45;;;;;;;4.53;3.57;;;;;24.70;100302.00;;;;2039776;28;20231;-59
2023/07/22 04:51:45;;;;;;;3.33;3.03;;;;;24.70;100304.00;;;;2048864;28;20227;-57
2023/07/22 04:52:46;;;;;;;3.63;3.30;;;;;24.70;100330.00;;;;2053547;28;20220;-57
2023/07/22 04:53:47;;;;;;;3.60;3.30;;;;;24.70;100304.00;;;;2050931;28;20470;-56
2023/07/22 04:54:47;;;;;;;3.40;3.10;;;;;24.70;100313.00;;;;2052070;28;20463;-57
2023/07/22 04:55:47;;;;;;;3.10;2.90;;;;;24.70;100303.00;;;;2041516;28;20254;-57
2023/07/22 04:56:48;;;;;;;3.60;3.30;;;;;24.70;100301.00;;;;2051316;28;20242;-56
2023/07/22 04:57:48;;;;;;;3.50;3.20;;;;;24.70;100303.00;;;;2053724;28;20246;-57
2023/07/22 04:58:49;;;;;;;3.47;3.17;;;;;24.70;100303.00;;;;2052846;28;20573;-57
2023/07/22 04:59:49;;;;;;;3.80;3.50;;;;;24.70;100299.00;;;;2053589;28;20351;-56
2023/07/22 05:00:50;;;;;;;3.37;3.07;;;;;24.70;100306.00;;;;2038980;28;20239;-56